Time;durP1;ratioP1;P1;durP2;ratioP2;P2;SDS_P1;SDS_P2;PMS_P1;PMS_P2;Temp;Humidity;BMP_temperature;BMP_pressure;BME280_temperature;BME280_humidity;BME280_pressure;Samples;Min_cycle;Max_cycle;Signal;HPM_P1;HPM_P2
2023/01/21 00:01:44;;;;;;;36.08;15.85;;;;;;;;;;5034849;28;20120;-69
2023/01/21 00:04:09;;;;;;;35.72;16.38;;;;;;;;;;5034700;28;20129;-70
2023/01/21 00:06:35;;;;;;;34.58;15.02;;;;;;;;;;5034759;28;20478;-69
2023/01/21 00:09:02;;;;;;;38.38;15.88;;;;;;;;;;5034706;28;20029;-69
2023/01/21 00:11:27;;;;;;;36.83;15.93;;;;;;;;;;5034729;28;20084;-69
2023/01/21 00:13:53;;;;;;;39.40;15.57;;;;;;;;;;5033949;28;20477;-71
2023/01/21 00:16:18;;;;;;;33.78;15.32;;;;;;;;;;5034750;28;20546;-69
2023/01/21 00:18:46;;;;;;;36.03;15.13;;;;;;;;;;5034737;28;20025;-70
2023/01/21 00:21:12;;;;;;;33.50;15.73;;;;;;;;;;5034553;28;20045;-70
2023/01/21 00:23:37;;;;;;;36.22;15.57;;;;;;;;;;5022146;28;20029;-70
2023/01/21 00:26:05;;;;;;;38.25;16.50;;;;;;;;;;5014621;28;20037;-71
2023/01/21 00:28:33;;;;;;;35.40;16.33;;;;;;;;;;5014786;28;20034;-70
2023/01/21 00:31:00;;;;;;;33.30;15.50;;;;;;;;;;5014687;28;20037;-70
2023/01/21 00:33:27;;;;;;;36.58;16.05;;;;;;;;;;5014553;28;20033;-70
2023/01/21 00:36:06;;;;;;;39.58;16.90;;;;;;;;;;5014638;28;20489;-70
2023/01/21 00:38:32;;;;;;;35.08;16.20;;;;;;;;;;4998305;28;20038;-70
2023/01/21 00:40:59;;;;;;;28.58;14.20;;;;;;;;;;5014503;28;20041;-69
2023/01/21 00:43:25;;;;;;;31.42;15.32;;;;;;;;;;5014393;28;20431;-70
2023/01/21 00:45:50;;;;;;;31.92;14.45;;;;;;;;;;5014474;28;20030;-70
2023/01/21 00:48:16;;;;;;;31.13;14.27;;;;;;;;;;4996716;28;20029;-70
2023/01/21 00:50:41;;;;;;;29.02;14.05;;;;;;;;;;5014303;28;20029;-70
2023/01/21 00:53:06;;;;;;;33.03;14.05;;;;;;;;;;5014078;28;20429;-69
2023/01/21 00:55:32;;;;;;;33.03;15.63;;;;;;;;;;5014215;28;20441;-70
2023/01/21 00:57:57;;;;;;;32.65;15.70;;;;;;;;;;5014277;28;20030;-70
2023/01/21 01:00:23;;;;;;;31.92;14.63;;;;;;;;;;5013963;28;20037;-69
2023/01/21 01:02:48;;;;;;;29.48;13.35;;;;;;;;;;5019484;28;20374;-70
2023/01/21 01:05:14;;;;;;;24.25;11.75;;;;;;;;;;5035644;28;20057;-70
2023/01/21 01:07:42;;;;;;;25.50;11.45;;;;;;;;;;5033211;28;20028;-69
2023/01/21 01:10:08;;;;;;;27.23;11.85;;;;;;;;;;5033667;28;20026;-69
2023/01/21 01:12:34;;;;;;;21.17;11.15;;;;;;;;;;5022777;28;20366;-69
2023/01/21 01:14:59;;;;;;;18.75;9.80;;;;;;;;;;5023721;28;20062;-69
2023/01/21 01:17:25;;;;;;;22.15;10.38;;;;;;;;;;5020561;28;20021;-68
2023/01/21 01:19:50;;;;;;;22.48;11.07;;;;;;;;;;5012876;28;20048;-68
2023/01/21 01:22:16;;;;;;;23.15;10.98;;;;;;;;;;5012591;28;20359;-69
2023/01/21 01:24:41;;;;;;;22.63;10.18;;;;;;;;;;5012859;28;20052;-69
2023/01/21 01:27:07;;;;;;;22.13;10.20;;;;;;;;;;5012763;28;20414;-70
2023/01/21 01:29:32;;;;;;;21.85;11.85;;;;;;;;;;5012870;28;20030;-70
2023/01/21 01:31:58;;;;;;;24.23;10.13;;;;;;;;;;5012685;28;20109;-70
2023/01/21 01:34:23;;;;;;;19.98;9.70;;;;;;;;;;5012636;28;20482;-69
2023/01/21 01:36:49;;;;;;;19.52;9.25;;;;;;;;;;4994803;28;20029;-69
2023/01/21 01:39:14;;;;;;;18.38;9.65;;;;;;;;;;5012524;28;20025;-69
2023/01/21 01:41:40;;;;;;;21.23;9.80;;;;;;;;;;5012481;28;20470;-69
2023/01/21 01:44:43;;;;;;;19.55;9.55;;;;;;;;;;5012473;28;20038;-69
2023/01/21 01:47:09;;;;;;;22.75;9.45;;;;;;;;;;5012250;28;20042;-70
2023/01/21 01:49:35;;;;;;;21.30;10.00;;;;;;;;;;5012402;28;20018;-70
2023/01/21 01:52:03;;;;;;;24.75;10.27;;;;;;;;;;5012119;28;20028;-70
2023/01/21 01:54:33;;;;;;;18.95;10.52;;;;;;;;;;5013175;28;20033;-69
2023/01/21 01:57:01;;;;;;;21.52;10.52;;;;;;;;;;5013174;28;20030;-69
2023/01/21 01:59:28;;;;;;;17.08;9.98;;;;;;;;;;5013128;28;20477;-70
2023/01/21 02:01:55;;;;;;;17.80;8.63;;;;;;;;;;5012992;28;20029;-70
2023/01/21 02:04:25;;;;;;;19.75;9.82;;;;;;;;;;5033966;28;20036;-70
2023/01/21 02:06:52;;;;;;;23.53;9.07;;;;;;;;;;5052537;28;20478;-69
2023/01/21 02:09:18;;;;;;;18.25;8.75;;;;;;;;;;5052639;28;20021;-69
2023/01/21 02:11:43;;;;;;;22.25;10.38;;;;;;;;;;5052562;28;20526;-69
2023/01/21 02:14:09;;;;;;;17.23;9.13;;;;;;;;;;5052556;28;20028;-70
2023/01/21 02:16:51;;;;;;;20.63;10.23;;;;;;;;;;5052489;28;20151;-69
2023/01/21 02:19:37;;;;;;;22.33;9.55;;;;;;;;;;5052159;28;20384;-70
2023/01/21 02:22:31;;;;;;;22.13;9.68;;;;;;;;;;5052490;28;20062;-70
2023/01/21 02:25:00;;;;;;;17.65;9.82;;;;;;;;;;5052293;28;20029;-69
2023/01/21 02:27:36;;;;;;;19.30;9.15;;;;;;;;;;5052412;28;20028;-70
2023/01/21 02:30:39;;;;;;;19.20;9.52;;;;;;;;;;5052503;28;20028;-70
2023/01/21 02:33:38;;;;;;;18.88;9.60;;;;;;;;;;5052396;28;20024;-70
2023/01/21 02:36:43;;;;;;;22.08;10.57;;;;;;;;;;5052220;28;20024;-70
2023/01/21 02:39:38;;;;;;;25.52;11.27;;;;;;;;;;5052273;28;20025;-70
2023/01/21 02:42:06;;;;;;;25.98;11.38;;;;;;;;;;4971408;28;20484;-70
2023/01/21 02:44:43;;;;;;;24.92;11.57;;;;;;;;;;4971427;28;20046;-70
2023/01/21 02:47:23;;;;;;;20.80;11.40;;;;;;;;;;4971463;28;20181;-71
2023/01/21 02:49:58;;;;;;;21.05;9.93;;;;;;;;;;4971278;28;20101;-69
2023/01/21 02:52:24;;;;;;;19.70;9.35;;;;;;;;;;4971389;28;20041;-69
2023/01/21 02:54:59;;;;;;;21.80;9.65;;;;;;;;;;4971425;28;20031;-70
2023/01/21 02:57:33;;;;;;;16.50;9.38;;;;;;;;;;4971434;28;20034;-70
2023/01/21 03:00:00;;;;;;;17.20;9.43;;;;;;;;;;4955177;28;20035;-70
2023/01/21 03:03:02;;;;;;;19.55;9.45;;;;;;;;;;4971112;28;20046;-69
2023/01/21 03:05:48;;;;;;;18.48;9.63;;;;;;;;;;4971109;28;20501;-70
2023/01/21 03:08:20;;;;;;;20.70;9.48;;;;;;;;;;4971211;28;20035;-70
2023/01/21 03:11:01;;;;;;;19.27;10.38;;;;;;;;;;4971175;28;20041;-69
2023/01/21 03:19:05;;;;;;;20.23;9.70;;;;;;;;;;5018302;28;20568;-70
2023/01/21 03:21:32;;;;;;;17.70;9.82;;;;;;;;;;5051988;28;20083;-70
2023/01/21 03:23:58;;;;;;;20.65;9.98;;;;;;;;;;5051718;28;20029;-69
2023/01/21 03:26:32;;;;;;;24.25;10.85;;;;;;;;;;5051868;28;20040;-69
2023/01/21 03:29:01;;;;;;;25.08;10.13;;;;;;;;;;5051720;28;20021;-69
2023/01/21 03:31:30;;;;;;;20.85;9.32;;;;;;;;;;5051875;28;20021;-70
2023/01/21 03:34:01;;;;;;;17.90;8.75;;;;;;;;;;5051594;28;20028;-69
2023/01/21 03:36:44;;;;;;;26.40;11.27;;;;;;;;;;5051734;28;20472;-69
2023/01/21 03:39:29;;;;;;;25.13;11.15;;;;;;;;;;5051734;28;20020;-70
2023/01/21 03:41:54;;;;;;;23.48;10.25;;;;;;;;;;5051707;28;20029;-70
2023/01/21 03:44:20;;;;;;;26.10;11.18;;;;;;;;;;5051630;28;20036;-70
2023/01/21 03:46:49;;;;;;;32.53;12.10;;;;;;;;;;5051477;28;20069;-70
2023/01/21 03:49:28;;;;;;;27.75;13.27;;;;;;;;;;5052221;28;20040;-69
2023/01/21 03:51:58;;;;;;;32.80;13.32;;;;;;;;;;5055171;28;20036;-70
2023/01/21 03:54:23;;;;;;;31.27;14.30;;;;;;;;;;5055182;28;20032;-69
2023/01/21 03:56:48;;;;;;;26.25;13.13;;;;;;;;;;5055210;28;20024;-70
2023/01/21 03:59:14;;;;;;;32.55;14.27;;;;;;;;;;5055078;28;20473;-70
2023/01/21 04:01:40;;;;;;;30.65;14.48;;;;;;;;;;5054905;28;20041;-69
2023/01/21 04:04:06;;;;;;;28.88;13.20;;;;;;;;;;5054591;28;20052;-71
2023/01/21 04:06:32;;;;;;;28.77;14.20;;;;;;;;;;5054928;28;20043;-70
2023/01/21 04:08:57;;;;;;;31.10;15.50;;;;;;;;;;5054917;28;20021;-69
2023/01/21 04:11:23;;;;;;;30.25;16.38;;;;;;;;;;5054914;28;20220;-70
2023/01/21 04:13:48;;;;;;;23.38;12.00;;;;;;;;;;5054712;28;20052;-69
2023/01/21 04:16:14;;;;;;;32.28;14.48;;;;;;;;;;5054441;28;20029;-69
2023/01/21 04:18:39;;;;;;;35.35;15.30;;;;;;;;;;5054658;28;20036;-70
2023/01/21 04:21:05;;;;;;;32.83;15.77;;;;;;;;;;5054338;28;20021;-70
2023/01/21 04:23:30;;;;;;;34.05;16.48;;;;;;;;;;5054595;28;20033;-69
2023/01/21 04:25:55;;;;;;;29.42;14.05;;;;;;;;;;5054583;28;20025;-70
2023/01/21 04:28:21;;;;;;;24.92;12.07;;;;;;;;;;5054496;28;20021;-69
2023/01/21 04:30:47;;;;;;;30.52;13.63;;;;;;;;;;5054341;28;20377;-69
2023/01/21 04:33:13;;;;;;;31.05;15.68;;;;;;;;;;5036601;28;20116;-69
2023/01/21 04:35:38;;;;;;;25.52;13.63;;;;;;;;;;5054386;28;20044;-69
2023/01/21 04:38:04;;;;;;;27.20;14.48;;;;;;;;;;5054175;28;20076;-70
2023/01/21 04:40:30;;;;;;;31.08;14.05;;;;;;;;;;5054329;28;20025;-70
2023/01/21 04:42:55;;;;;;;28.95;14.85;;;;;;;;;;5054384;28;20385;-69
2023/01/21 04:45:21;;;;;;;31.50;16.08;;;;;;;;;;5054113;28;20032;-70
2023/01/21 04:47:46;;;;;;;31.20;14.20;;;;;;;;;;5054297;28;20339;-70
2023/01/21 04:50:13;;;;;;;35.53;16.58;;;;;;;;;;5054121;28;20063;-69
2023/01/21 04:52:38;;;;;;;33.08;15.40;;;;;;;;;;5054072;28;20063;-69
2023/01/21 04:55:05;;;;;;;24.60;10.55;;;;;;;;;;5054063;28;20060;-70
2023/01/21 04:57:30;;;;;;;30.70;14.45;;;;;;;;;;5053941;28;20021;-69
2023/01/21 04:59:55;;;;;;;27.15;14.55;;;;;;;;;;5053340;28;20623;-69
2023/01/21 05:02:21;;;;;;;30.23;15.63;;;;;;;;;;5053573;28;20041;-70
2023/01/21 05:04:46;;;;;;;23.88;12.30;;;;;;;;;;5053343;28;20044;-70
2023/01/21 05:07:13;;;;;;;22.98;11.60;;;;;;;;;;5053728;28;20021;-70
2023/01/21 05:09:39;;;;;;;24.58;11.80;;;;;;;;;;5053664;28;20017;-70
2023/01/21 05:12:04;;;;;;;27.45;11.73;;;;;;;;;;5053661;28;20086;-70
2023/01/21 05:14:30;;;;;;;25.40;12.45;;;;;;;;;;5053565;28;20035;-70
2023/01/21 05:16:56;;;;;;;25.48;12.35;;;;;;;;;;5053570;28;20389;-70
2023/01/21 05:19:22;;;;;;;25.58;13.00;;;;;;;;;;5053657;28;20461;-70
2023/01/21 05:21:47;;;;;;;24.50;12.68;;;;;;;;;;5053474;28;20094;-70
2023/01/21 05:24:12;;;;;;;29.00;13.00;;;;;;;;;;5053234;28;20246;-70
2023/01/21 05:26:38;;;;;;;24.02;12.82;;;;;;;;;;5053377;28;20385;-70
2023/01/21 05:29:03;;;;;;;30.33;12.77;;;;;;;;;;5053126;28;20025;-69
2023/01/21 05:31:29;;;;;;;27.52;12.75;;;;;;;;;;5053290;28;20033;-70
2023/01/21 05:33:55;;;;;;;23.63;13.15;;;;;;;;;;5053213;28;20036;-70
2023/01/21 05:36:21;;;;;;;27.40;13.57;;;;;;;;;;5053254;28;20035;-70
2023/01/21 05:38:46;;;;;;;27.05;12.18;;;;;;;;;;5053244;28;20025;-70
2023/01/21 05:41:12;;;;;;;27.08;12.38;;;;;;;;;;5053045;28;20095;-71
2023/01/21 05:43:37;;;;;;;24.95;12.43;;;;;;;;;;5052805;28;20061;-70
2023/01/21 05:46:02;;;;;;;26.38;14.35;;;;;;;;;;5052999;28;20029;-70
2023/01/21 05:48:28;;;;;;;27.33;13.60;;;;;;;;;;5035129;28;20033;-69
2023/01/21 05:50:54;;;;;;;24.58;12.45;;;;;;;;;;5053054;28;20078;-69
2023/01/21 05:53:19;;;;;;;19.52;9.90;;;;;;;;;;5052872;28;20096;-69
2023/01/21 05:55:45;;;;;;;21.60;10.57;;;;;;;;;;5052855;28;20091;-70
2023/01/21 05:58:10;;;;;;;24.55;12.35;;;;;;;;;;5052535;28;20086;-69
2023/01/21 06:00:36;;;;;;;24.35;12.18;;;;;;;;;;5052777;28;20037;-70
2023/01/21 06:03:02;;;;;;;29.08;13.43;;;;;;;;;;5052574;28;20120;-69
2023/01/21 06:05:28;;;;;;;24.48;12.32;;;;;;;;;;5052380;28;20029;-69
2023/01/21 06:07:54;;;;;;;23.98;12.10;;;;;;;;;;5052673;28;20044;-70
2023/01/21 06:10:20;;;;;;;24.90;12.18;;;;;;;;;;5052644;28;20025;-69
2023/01/21 06:12:48;;;;;;;26.48;12.98;;;;;;;;;;5051751;28;20025;-69
2023/01/21 06:15:13;;;;;;;24.35;12.00;;;;;;;;;;5052536;28;20563;-69
2023/01/21 06:17:39;;;;;;;24.67;12.35;;;;;;;;;;5052223;28;20097;-69
2023/01/21 06:20:06;;;;;;;24.65;13.00;;;;;;;;;;5052510;28;20028;-71
2023/01/21 06:22:31;;;;;;;24.58;12.85;;;;;;;;;;5052503;28;20456;-70
2023/01/21 06:24:56;;;;;;;25.90;13.10;;;;;;;;;;5034464;28;20104;-70
2023/01/21 06:27:22;;;;;;;25.23;12.57;;;;;;;;;;5052285;28;20059;-69
2023/01/21 06:29:47;;;;;;;27.55;13.93;;;;;;;;;;5052334;28;20112;-70
2023/01/21 06:32:13;;;;;;;27.17;13.90;;;;;;;;;;5052295;28;20037;-69
2023/01/21 06:34:38;;;;;;;27.33;14.10;;;;;;;;;;5052409;28;20107;-70
2023/01/21 06:37:04;;;;;;;30.25;14.25;;;;;;;;;;5034096;28;20392;-70
2023/01/21 06:39:29;;;;;;;33.47;14.30;;;;;;;;;;5052229;28;20025;-69
2023/01/21 06:41:54;;;;;;;29.52;14.90;;;;;;;;;;5051762;28;20017;-70
2023/01/21 06:44:20;;;;;;;33.30;16.17;;;;;;;;;;5052203;28;20098;-69
2023/01/21 06:46:45;;;;;;;30.70;15.57;;;;;;;;;;5034431;28;20488;-69
2023/01/21 06:49:11;;;;;;;31.67;15.05;;;;;;;;;;5052149;28;20032;-70
2023/01/21 06:51:36;;;;;;;30.52;15.23;;;;;;;;;;5052266;28;20029;-70
2023/01/21 06:54:02;;;;;;;30.27;14.95;;;;;;;;;;5052138;28;20038;-70
2023/01/21 06:56:27;;;;;;;34.65;17.20;;;;;;;;;;5051949;28;20032;-70
2023/01/21 06:58:52;;;;;;;33.70;16.23;;;;;;;;;;5051969;28;20111;-69
2023/01/21 07:01:18;;;;;;;31.13;15.40;;;;;;;;;;5052086;28;20021;-70
2023/01/21 07:03:43;;;;;;;29.83;13.52;;;;;;;;;;5051654;28;20380;-70
2023/01/21 07:06:09;;;;;;;25.40;14.05;;;;;;;;;;5052033;28;20058;-70
2023/01/21 07:08:34;;;;;;;23.05;12.98;;;;;;;;;;5051816;28;20029;-70
2023/01/21 07:11:00;;;;;;;24.67;12.73;;;;;;;;;;5051705;28;20021;-71
2023/01/21 07:13:25;;;;;;;27.33;12.07;;;;;;;;;;5051796;28;20063;-70
2023/01/21 07:15:51;;;;;;;29.13;13.93;;;;;;;;;;5051726;28;20029;-70
2023/01/21 07:18:16;;;;;;;22.17;12.27;;;;;;;;;;5051803;28;20028;-70
2023/01/21 07:20:42;;;;;;;29.65;13.38;;;;;;;;;;5051734;28;20581;-71
2023/01/21 07:23:07;;;;;;;26.83;13.15;;;;;;;;;;5052245;28;20502;-70
2023/01/21 07:25:34;;;;;;;29.45;14.43;;;;;;;;;;5037261;28;20029;-71
2023/01/21 07:28:00;;;;;;;29.17;16.05;;;;;;;;;;5055333;28;20040;-70
2023/01/21 07:30:26;;;;;;;29.58;14.23;;;;;;;;;;5055367;28;20021;-70
2023/01/21 07:32:51;;;;;;;31.90;15.05;;;;;;;;;;5055447;28;20051;-70
2023/01/21 07:35:17;;;;;;;34.08;16.55;;;;;;;;;;5055299;28;20035;-70
2023/01/21 07:37:42;;;;;;;35.53;18.58;;;;;;;;;;5055186;28;20070;-70
2023/01/21 07:40:08;;;;;;;41.22;20.75;;;;;;;;;;5055037;28;20036;-70
2023/01/21 07:42:33;;;;;;;35.78;18.63;;;;;;;;;;5055176;28;20024;-70
2023/01/21 07:45:01;;;;;;;37.40;19.33;;;;;;;;;;5055025;28;20028;-70
2023/01/21 07:47:27;;;;;;;44.15;19.45;;;;;;;;;;5055172;28;20083;-70
2023/01/21 07:49:52;;;;;;;44.08;22.20;;;;;;;;;;5055146;28;20485;-70
2023/01/21 07:52:18;;;;;;;40.90;18.77;;;;;;;;;;5054911;28;20449;-70
2023/01/21 07:54:43;;;;;;;37.47;17.90;;;;;;;;;;5054837;28;20029;-70
2023/01/21 07:57:09;;;;;;;35.03;16.42;;;;;;;;;;5054839;28;20215;-70
2023/01/21 07:59:34;;;;;;;31.73;15.63;;;;;;;;;;5054931;28;20064;-69
2023/01/21 08:01:59;;;;;;;29.42;16.35;;;;;;;;;;5054641;28;20496;-69
2023/01/21 08:04:25;;;;;;;28.90;14.52;;;;;;;;;;5054649;28;20082;-71
2023/01/21 08:06:55;;;;;;;33.47;15.35;;;;;;;;;;5054905;28;20023;-70
2023/01/21 08:09:24;;;;;;;30.67;15.20;;;;;;;;;;5054718;28;20016;-70
2023/01/21 08:11:50;;;;;;;33.63;16.35;;;;;;;;;;5054815;28;20025;-70
2023/01/21 08:14:15;;;;;;;32.38;15.95;;;;;;;;;;5054768;28;20025;-69
2023/01/21 08:16:41;;;;;;;30.58;15.50;;;;;;;;;;5054624;28;20036;-69
2023/01/21 08:19:06;;;;;;;31.98;15.50;;;;;;;;;;5054468;28;20032;-70
2023/01/21 08:21:32;;;;;;;35.55;15.60;;;;;;;;;;5054388;28;20022;-69
2023/01/21 08:23:57;;;;;;;29.13;14.20;;;;;;;;;;5054310;28;20057;-70
2023/01/21 08:26:23;;;;;;;31.20;13.45;;;;;;;;;;5054674;28;20108;-70
2023/01/21 08:28:48;;;;;;;26.73;13.70;;;;;;;;;;5054682;28;20438;-70
2023/01/21 08:31:14;;;;;;;34.45;15.38;;;;;;;;;;5054467;28;20496;-69
2023/01/21 08:33:39;;;;;;;27.67;15.07;;;;;;;;;;5054497;28;20033;-69
2023/01/21 08:36:07;;;;;;;29.48;14.02;;;;;;;;;;5053447;28;20029;-69
2023/01/21 08:38:33;;;;;;;31.17;13.63;;;;;;;;;;5054181;28;20037;-70
2023/01/21 08:40:59;;;;;;;29.83;14.02;;;;;;;;;;5036312;28;20100;-69
2023/01/21 08:43:25;;;;;;;27.90;14.48;;;;;;;;;;5054168;28;20108;-69
2023/01/21 08:45:50;;;;;;;27.27;14.18;;;;;;;;;;5054099;28;20029;-70
2023/01/21 08:48:16;;;;;;;31.27;13.68;;;;;;;;;;5054090;28;20025;-69
2023/01/21 08:50:42;;;;;;;27.10;13.90;;;;;;;;;;5038841;28;20473;-70
2023/01/21 08:53:09;;;;;;;29.30;15.35;;;;;;;;;;5023476;28;20446;-70
2023/01/21 08:55:35;;;;;;;28.67;13.77;;;;;;;;;;5022069;28;20037;-70
2023/01/21 08:58:01;;;;;;;34.53;15.52;;;;;;;;;;5023433;28;20070;-69
2023/01/21 09:00:26;;;;;;;26.25;12.43;;;;;;;;;;5021149;28;20163;-69
2023/01/21 09:02:52;;;;;;;33.90;15.68;;;;;;;;;;5022849;28;20118;-70
2023/01/21 09:05:18;;;;;;;31.67;15.23;;;;;;;;;;5025515;28;20485;-70
2023/01/21 09:07:44;;;;;;;33.03;17.67;;;;;;;;;;5022259;28;20045;-70
2023/01/21 09:10:10;;;;;;;32.53;15.85;;;;;;;;;;5023515;28;20026;-71
2023/01/21 09:12:37;;;;;;;33.85;16.13;;;;;;;;;;5028435;28;20041;-71
2023/01/21 09:15:03;;;;;;;33.95;15.05;;;;;;;;;;5029278;28;20091;-69
2023/01/21 09:17:29;;;;;;;37.97;17.88;;;;;;;;;;5028731;28;20112;-70
2023/01/21 09:19:54;;;;;;;34.58;15.35;;;;;;;;;;5027636;28;20121;-69
2023/01/21 09:22:20;;;;;;;40.95;18.05;;;;;;;;;;5032947;28;20025;-70
2023/01/21 09:24:45;;;;;;;40.58;17.08;;;;;;;;;;5032849;28;20033;-70
2023/01/21 09:27:11;;;;;;;33.10;16.95;;;;;;;;;;5015179;28;20033;-70
2023/01/21 09:29:36;;;;;;;27.02;14.30;;;;;;;;;;5032977;28;20025;-70
2023/01/21 09:32:04;;;;;;;22.67;10.80;;;;;;;;;;5032924;28;20103;-69
2023/01/21 09:34:29;;;;;;;20.17;12.75;;;;;;;;;;5032389;28;20014;-70
2023/01/21 09:36:55;;;;;;;15.93;9.02;;;;;;;;;;5032808;28;20072;-70
2023/01/21 09:39:20;;;;;;;15.85;8.93;;;;;;;;;;5032883;28;20034;-68
2023/01/21 09:41:52;;;;;;;16.88;9.00;;;;;;;;;;5032733;28;20021;-69
2023/01/21 09:44:27;;;;;;;14.80;7.97;;;;;;;;;;5032339;28;20549;-69
2023/01/21 09:47:22;;;;;;;17.27;9.38;;;;;;;;;;5031748;28;20100;-68
2023/01/21 09:50:06;;;;;;;18.35;8.23;;;;;;;;;;5031246;28;20049;-69
2023/01/21 09:52:45;;;;;;;13.63;7.10;;;;;;;;;;5032688;28;20087;-68
2023/01/21 09:55:17;;;;;;;18.90;9.63;;;;;;;;;;5032836;28;20113;-69
2023/01/21 09:58:07;;;;;;;18.73;8.85;;;;;;;;;;5032704;28;20040;-68
2023/01/21 10:00:36;;;;;;;21.77;10.57;;;;;;;;;;5032617;28;20029;-69
2023/01/21 10:03:07;;;;;;;18.20;11.00;;;;;;;;;;5032476;28;20116;-69
2023/01/21 10:05:49;;;;;;;16.52;9.13;;;;;;;;;;5012493;28;20034;-67
2023/01/21 10:08:33;;;;;;;31.83;14.00;;;;;;;;;;4994665;28;20100;-69
2023/01/21 10:11:28;;;;;;;16.10;8.45;;;;;;;;;;5012915;28;20026;-68
2023/01/21 10:14:16;;;;;;;17.40;8.38;;;;;;;;;;5012790;28;20038;-68
2023/01/21 10:16:44;;;;;;;12.52;6.85;;;;;;;;;;5012860;28;20482;-68
2023/01/21 10:19:22;;;;;;;13.98;7.30;;;;;;;;;;5012519;28;20038;-68
2023/01/21 10:21:59;;;;;;;14.93;7.68;;;;;;;;;;5012751;28;20022;-68
2023/01/21 10:24:39;;;;;;;13.82;7.30;;;;;;;;;;5019531;28;20156;-68
2023/01/21 10:27:07;;;;;;;15.23;8.57;;;;;;;;;;5020226;28;20121;-68
2023/01/21 10:29:36;;;;;;;24.02;13.18;;;;;;;;;;5026372;28;20126;-68
2023/01/21 10:32:06;;;;;;;14.00;7.68;;;;;;;;;;5032382;28;20424;-68
2023/01/21 10:34:37;;;;;;;14.23;8.67;;;;;;;;;;5032149;28;20034;-68
2023/01/21 10:37:23;;;;;;;18.35;9.23;;;;;;;;;;5021018;28;20100;-69
2023/01/21 10:40:10;;;;;;;16.00;8.57;;;;;;;;;;5021990;28;20057;-68
2023/01/21 10:43:02;;;;;;;21.02;9.40;;;;;;;;;;5022842;28;20045;-69
2023/01/21 10:45:36;;;;;;;15.70;8.57;;;;;;;;;;5017670;28;20466;-68
2023/01/21 10:48:02;;;;;;;15.13;8.38;;;;;;;;;;5012178;28;20029;-68
2023/01/21 10:50:53;;;;;;;22.52;9.02;;;;;;;;;;5012484;28;20499;-68
2023/01/21 10:54:15;;;;;;;14.13;6.97;;;;;;;;;;5012550;28;20450;-68
2023/01/21 10:56:52;;;;;;;17.42;8.15;;;;;;;;;;4932887;29;20032;-69
2023/01/21 10:59:26;;;;;;;19.73;8.93;;;;;;;;;;4935595;29;20039;-68
2023/01/21 11:02:26;;;;;;;11.32;6.30;;;;;;;;;;4936391;29;20051;-69
2023/01/21 11:04:52;;;;;;;12.95;6.22;;;;;;;;;;4933697;29;20051;-68
2023/01/21 11:07:20;;;;;;;13.75;7.07;;;;;;;;;;4955913;28;20054;-69
2023/01/21 11:09:47;;;;;;;10.95;6.53;;;;;;;;;;4957067;28;20024;-68
2023/01/21 11:12:17;;;;;;;12.50;5.13;;;;;;;;;;4955719;28;20102;-69
2023/01/21 11:14:47;;;;;;;13.77;6.07;;;;;;;;;;4955395;28;20611;-68
2023/01/21 11:17:26;;;;;;;;;;;;;;;;;;4956135;29;20590;-68
2023/01/21 11:19:59;;;;;;;11.80;5.95;;;;;;;;;;4955804;28;19919;-69
2023/01/21 11:22:28;;;;;;;13.30;5.40;;;;;;;;;;4955621;29;20045;-69
2023/01/21 11:24:54;;;;;;;20.48;5.72;;;;;;;;;;4955514;29;20053;-70
2023/01/21 11:27:33;;;;;;;9.73;4.80;;;;;;;;;;4955641;28;20035;-69
2023/01/21 11:29:59;;;;;;;11.82;5.57;;;;;;;;;;4955582;28;20027;-70
2023/01/21 11:32:27;;;;;;;9.68;5.05;;;;;;;;;;4969393;28;20089;-69
2023/01/21 11:35:00;;;;;;;12.90;6.13;;;;;;;;;;5015969;28;20069;-69
2023/01/21 11:37:27;;;;;;;10.57;5.80;;;;;;;;;;5015861;28;20377;-68
2023/01/21 11:39:57;;;;;;;15.20;5.03;;;;;;;;;;5015820;28;20353;-69
2023/01/21 11:42:23;;;;;;;12.25;6.38;;;;;;;;;;5015583;28;20368;-69
2023/01/21 11:44:50;;;;;;;11.93;5.10;;;;;;;;;;5015549;28;20058;-69
2023/01/21 11:47:33;;;;;;;9.95;5.15;;;;;;;;;;5015377;28;20022;-68
2023/01/21 11:50:29;;;;;;;7.57;3.60;;;;;;;;;;5015649;28;20068;-69
2023/01/21 11:53:07;;;;;;;10.82;4.57;;;;;;;;;;5009247;28;20046;-70
2023/01/21 11:55:39;;;;;;;14.63;5.65;;;;;;;;;;5015414;28;20466;-69
2023/01/21 11:58:17;;;;;;;7.95;3.90;;;;;;;;;;5015684;28;20026;-69
2023/01/21 12:00:45;;;;;;;12.25;5.57;;;;;;;;;;5015244;28;20030;-69
2023/01/21 12:03:16;;;;;;;9.82;4.57;;;;;;;;;;5016716;28;20125;-70
2023/01/21 12:05:42;;;;;;;7.47;3.03;;;;;;;;;;5054684;28;20029;-69
2023/01/21 12:08:21;;;;;;;9.95;3.72;;;;;;;;;;5055022;28;20036;-69
2023/01/21 12:10:48;;;;;;;6.55;3.08;;;;;;;;;;5053908;28;20059;-70
2023/01/21 12:13:16;;;;;;;7.28;2.70;;;;;;;;;;5055093;28;20436;-69
2023/01/21 12:16:19;;;;;;;6.80;3.28;;;;;;;;;;5054365;28;20025;-69
2023/01/21 12:19:06;;;;;;;11.98;3.55;;;;;;;;;;5054856;28;20775;-69
2023/01/21 12:22:09;;;;;;;7.60;3.00;;;;;;;;;;5054710;28;20385;-69
2023/01/21 12:24:47;;;;;;;6.25;2.83;;;;;;;;;;5054352;28;20036;-68
2023/01/21 12:27:50;;;;;;;9.45;2.97;;;;;;;;;;5054668;28;20024;-69
2023/01/21 12:30:23;;;;;;;8.00;2.78;;;;;;;;;;5054317;28;20064;-69
2023/01/21 12:33:00;;;;;;;12.73;2.72;;;;;;;;;;5054221;28;20047;-68
2023/01/21 12:35:34;;;;;;;13.60;4.30;;;;;;;;;;5054419;28;20037;-68
2023/01/21 12:38:11;;;;;;;6.63;2.70;;;;;;;;;;5054421;28;20021;-69
2023/01/21 12:40:48;;;;;;;5.32;2.92;;;;;;;;;;5054279;28;20029;-68
2023/01/21 12:43:17;;;;;;;7.28;2.97;;;;;;;;;;5054072;28;20025;-68
2023/01/21 12:45:54;;;;;;;10.18;3.70;;;;;;;;;;5054190;28;20024;-68
2023/01/21 12:48:42;;;;;;;7.63;2.85;;;;;;;;;;5054027;28;20021;-68
2023/01/21 12:51:13;;;;;;;7.45;3.75;;;;;;;;;;5054096;28;20017;-68
2023/01/21 12:53:44;;;;;;;8.60;3.88;;;;;;;;;;5053928;28;20020;-68
2023/01/21 12:56:19;;;;;;;9.45;3.72;;;;;;;;;;5053900;28;20029;-69
2023/01/21 12:58:54;;;;;;;23.35;9.05;;;;;;;;;;5053589;28;20048;-69
2023/01/21 13:01:43;;;;;;;7.65;2.72;;;;;;;;;;5053749;28;20049;-69
2023/01/21 13:04:30;;;;;;;10.68;3.33;;;;;;;;;;5035395;28;20041;-69
2023/01/21 13:07:06;;;;;;;13.95;4.13;;;;;;;;;;5024833;28;20033;-68
2023/01/21 13:10:07;;;;;;;5.10;3.03;;;;;;;;;;5020301;28;20029;-68
2023/01/21 13:12:34;;;;;;;5.50;2.80;;;;;;;;;;4933762;29;20062;-68
2023/01/21 13:15:08;;;;;;;7.63;2.80;;;;;;;;;;4934417;29;20080;-68
2023/01/21 13:17:34;;;;;;;6.00;3.28;;;;;;;;;;4934309;29;20028;-68
2023/01/21 13:20:01;;;;;;;8.52;3.38;;;;;;;;;;4934407;29;20044;-69
2023/01/21 13:22:41;;;;;;;7.65;3.20;;;;;;;;;;4933984;29;20024;-69
2023/01/21 13:25:22;;;;;;;7.93;3.13;;;;;;;;;;4934157;29;20551;-69
2023/01/21 13:28:10;;;;;;;;;;;;;;;;;;4934332;29;20051;-69
2023/01/21 13:30:44;;;;;;;7.73;2.70;;;;;;;;;;4924489;29;20299;-69
2023/01/21 13:33:21;;;;;;;4.75;2.50;;;;;;;;;;4933993;29;20171;-67
2023/01/21 13:35:46;;;;;;;5.80;2.42;;;;;;;;;;4934065;29;20032;-68
2023/01/21 13:38:17;;;;;;;13.00;2.80;;;;;;;;;;4933948;29;20497;-69
2023/01/21 13:41:14;;;;;;;7.47;2.95;;;;;;;;;;4933731;29;20040;-69
2023/01/21 13:44:07;;;;;;;6.90;3.60;;;;;;;;;;4933803;29;20036;-68
2023/01/21 13:46:48;;;;;;;11.55;3.90;;;;;;;;;;4973939;28;20034;-69
2023/01/21 13:49:39;;;;;;;11.35;3.03;;;;;;;;;;5013122;28;20033;-69
2023/01/21 13:52:17;;;;;;;9.50;3.15;;;;;;;;;;5006336;28;20045;-68
2023/01/21 13:55:01;;;;;;;6.28;3.17;;;;;;;;;;5019402;28;20493;-68
2023/01/21 13:57:40;;;;;;;5.43;2.65;;;;;;;;;;5032778;28;20027;-68
2023/01/21 14:00:32;;;;;;;7.75;3.20;;;;;;;;;;5032927;28;20032;-68
2023/01/21 14:03:20;;;;;;;7.05;3.15;;;;;;;;;;5027877;28;20046;-68
2023/01/21 14:05:53;;;;;;;6.00;2.75;;;;;;;;;;5012989;28;20117;-69
2023/01/21 14:08:50;;;;;;;6.95;2.92;;;;;;;;;;5012660;28;20447;-68
2023/01/21 14:11:25;;;;;;;5.43;2.42;;;;;;;;;;4998904;28;20088;-69
2023/01/21 14:14:19;;;;;;;4.45;2.25;;;;;;;;;;5032695;28;20131;-69
2023/01/21 14:17:12;;;;;;;3.92;2.35;;;;;;;;;;5029136;28;20045;-68
2023/01/21 14:19:38;;;;;;;4.78;2.78;;;;;;;;;;5022296;28;20087;-68
2023/01/21 14:22:09;;;;;;;6.55;3.03;;;;;;;;;;5020541;28;20417;-68
2023/01/21 14:24:53;;;;;;;5.03;2.63;;;;;;;;;;5020089;28;20037;-67
2023/01/21 14:27:33;;;;;;;8.35;3.00;;;;;;;;;;5022105;28;20028;-68
2023/01/21 14:30:29;;;;;;;4.60;2.10;;;;;;;;;;5022486;28;20017;-67
2023/01/21 14:33:00;;;;;;;7.20;3.15;;;;;;;;;;5021657;28;20163;-68
2023/01/21 14:35:50;;;;;;;11.25;3.45;;;;;;;;;;5003516;28;20540;-69
2023/01/21 14:38:48;;;;;;;8.07;3.40;;;;;;;;;;5022243;28;20095;-68
2023/01/21 14:41:14;;;;;;;4.88;2.80;;;;;;;;;;4998051;28;20034;-68
2023/01/21 14:43:43;;;;;;;14.70;8.95;;;;;;;;;;5012541;28;20029;-68
2023/01/21 14:46:32;;;;;;;5.20;2.80;;;;;;;;;;5012540;28;20022;-68
2023/01/21 14:49:05;;;;;;;6.78;3.42;;;;;;;;;;4997825;28;20398;-68
2023/01/21 14:51:31;;;;;;;5.53;2.75;;;;;;;;;;5012517;28;20029;-70
2023/01/21 14:54:03;;;;;;;7.22;2.47;;;;;;;;;;5018016;28;20096;-69
2023/01/21 14:56:34;;;;;;;7.55;3.28;;;;;;;;;;5031575;28;20399;-68